createdAt,value
2023-01-18T00:02:08.718Z,99124.91
2023-01-18T00:04:37.595Z,99124.06
2023-01-18T00:07:06.307Z,99135.06
2023-01-18T00:09:35.293Z,99143.72
2023-01-18T00:12:04.100Z,99139.44
2023-01-18T00:14:32.946Z,99147.09
2023-01-18T00:17:01.788Z,99151.44
2023-01-18T00:19:30.537Z,99155.59
2023-01-18T00:21:59.464Z,99164.03
2023-01-18T00:24:29.551Z,99164.63
2023-01-18T00:26:58.555Z,99163.81
2023-01-18T00:29:27.924Z,99163.09
2023-01-18T00:31:57.095Z,99170.88
2023-01-18T00:34:29.103Z,99176.00
2023-01-18T00:36:58.182Z,99185.03
2023-01-18T00:39:27.181Z,99185.78
2023-01-18T00:42:31.267Z,99182.47
2023-01-18T00:45:00.323Z,99190.13
2023-01-18T00:47:29.516Z,99186.03
2023-01-18T00:49:58.389Z,99197.94
2023-01-18T00:52:27.236Z,99198.94
2023-01-18T00:54:56.560Z,99197.41
2023-01-18T00:57:25.291Z,99198.63
2023-01-18T00:59:54.165Z,99191.41
2023-01-18T01:02:23.238Z,99187.31
2023-01-18T01:05:10.794Z,99179.06
2023-01-18T01:07:40.142Z,99183.59
2023-01-18T01:10:11.096Z,99189.75
2023-01-18T01:12:59.605Z,99199.22
2023-01-18T01:15:48.143Z,99205.28
2023-01-18T01:18:36.627Z,99212.03
2023-01-18T01:21:25.709Z,99214.75
2023-01-18T01:24:14.320Z,99213.13
2023-01-18T01:26:44.038Z,99223.41
2023-01-18T01:29:15.042Z,99233.69
2023-01-18T01:31:45.209Z,99235.34
2023-01-18T01:34:16.627Z,99237.91
2023-01-18T01:36:47.346Z,99242.94
2023-01-18T01:39:19.028Z,99242.00
2023-01-18T01:41:49.040Z,99229.31
2023-01-18T01:48:16.578Z,99231.06
2023-01-18T01:50:46.497Z,99236.28
2023-01-18T01:53:16.704Z,99244.00
2023-01-18T01:55:46.426Z,99245.56
2023-01-18T01:58:24.643Z,99245.00
2023-01-18T02:00:55.404Z,99248.94
2023-01-18T02:03:27.556Z,99260.97
2023-01-18T02:06:10.875Z,99265.22
2023-01-18T02:08:41.759Z,99273.38
2023-01-18T02:11:11.793Z,99286.88
2023-01-18T02:13:41.367Z,99284.34
2023-01-18T02:16:31.725Z,99288.13
2023-01-18T02:19:25.892Z,99293.31
2023-01-18T02:22:22.402Z,99300.06
2023-01-18T02:25:32.910Z,99296.03
2023-01-18T02:28:18.610Z,99311.25
2023-01-18T02:30:57.481Z,99312.72
2023-01-18T02:33:29.843Z,99320.31
2023-01-18T02:36:03.505Z,99314.59
2023-01-18T02:38:42.237Z,99305.31
2023-01-18T02:41:20.749Z,99318.69
2023-01-18T02:44:12.963Z,99315.53
2023-01-18T02:46:45.585Z,99324.88
2023-01-18T02:49:35.455Z,99330.22
2023-01-18T02:52:07.569Z,99330.84
2023-01-18T02:54:41.809Z,99330.16
2023-01-18T02:57:16.955Z,99322.41
2023-01-18T02:59:54.493Z,99314.13
2023-01-18T03:02:27.642Z,99314.84
2023-01-18T03:04:58.033Z,99317.47
2023-01-18T03:07:42.654Z,99321.16
2023-01-18T03:10:13.464Z,99318.59
2023-01-18T03:13:01.367Z,99319.44
2023-01-18T03:15:36.800Z,99341.59
2023-01-18T03:19:03.668Z,99347.16
2023-01-18T03:21:48.598Z,99359.13
2023-01-18T03:24:20.621Z,99370.16
2023-01-18T03:26:54.287Z,99380.59
2023-01-18T03:29:43.487Z,99386.56
2023-01-18T03:32:34.754Z,99388.44
2023-01-18T03:35:11.073Z,99387.03
2023-01-18T03:37:46.560Z,99388.13
2023-01-18T03:40:20.646Z,99379.78
2023-01-18T03:42:55.127Z,99376.28
2023-01-18T03:45:39.131Z,99389.00
2023-01-18T03:48:10.169Z,99394.88
2023-01-18T03:51:03.788Z,99398.38
2023-01-18T03:53:42.590Z,99413.78
2023-01-18T03:56:23.021Z,99411.22
2023-01-18T03:58:55.536Z,99413.53
2023-01-18T04:01:25.110Z,99416.00
2023-01-18T04:03:54.526Z,99429.47
2023-01-18T04:06:24.432Z,99437.91
2023-01-18T04:08:54.644Z,99439.75
2023-01-18T04:11:23.851Z,99454.28
2023-01-18T04:13:54.458Z,99466.56
2023-01-18T04:16:24.064Z,99473.34
2023-01-18T04:18:55.651Z,99467.59
2023-01-18T04:21:24.818Z,99469.59
2023-01-18T04:23:53.620Z,99469.34
2023-01-18T04:26:22.695Z,99472.06
2023-01-18T04:28:52.016Z,99473.25
2023-01-18T04:31:21.177Z,99485.25
2023-01-18T04:33:53.042Z,99490.69
2023-01-18T04:36:23.397Z,99499.22
2023-01-18T04:38:56.356Z,99493.44
2023-01-18T04:41:25.955Z,99490.63
2023-01-18T04:43:55.107Z,99490.06
2023-01-18T04:46:24.344Z,99487.44
2023-01-18T04:48:53.493Z,99488.91
2023-01-18T04:51:25.046Z,99488.50
2023-01-18T04:53:57.699Z,99502.66
2023-01-18T04:56:27.499Z,99499.50
2023-01-18T04:58:57.393Z,99498.25
2023-01-18T05:01:26.618Z,99508.75
2023-01-18T05:03:55.936Z,99515.75
2023-01-18T05:06:25.662Z,99517.59
2023-01-18T05:08:55.377Z,99514.03
2023-01-18T05:11:24.562Z,99511.47
2023-01-18T05:13:54.114Z,99506.38
2023-01-18T05:16:24.787Z,99502.44
2023-01-18T05:18:54.478Z,99500.06
2023-01-18T05:21:23.992Z,99501.84
2023-01-18T05:23:53.209Z,99508.75
2023-01-18T05:26:24.600Z,99511.38
2023-01-18T05:28:58.699Z,99508.19
2023-01-18T05:31:28.485Z,99502.19
2023-01-18T05:34:00.639Z,99504.88
2023-01-18T05:36:29.875Z,99509.19
2023-01-18T05:38:59.059Z,99510.03
2023-01-18T05:41:28.311Z,99504.09
2023-01-18T05:43:57.676Z,99505.66
2023-01-18T05:46:27.018Z,99502.44
2023-01-18T05:49:00.445Z,99493.97
2023-01-18T05:51:30.089Z,99494.81
2023-01-18T05:53:59.528Z,99483.72
2023-01-18T05:56:29.255Z,99480.19
2023-01-18T05:58:58.426Z,99478.44
2023-01-18T06:01:28.340Z,99469.13
2023-01-18T06:03:57.715Z,99466.59
2023-01-18T06:06:28.430Z,99446.84
2023-01-18T06:08:57.537Z,99451.19
2023-01-18T06:11:26.788Z,99445.22
2023-01-18T06:13:56.150Z,99438.41
2023-01-18T06:16:25.936Z,99426.38
2023-01-18T06:18:55.768Z,99422.94
2023-01-18T06:21:25.871Z,99428.88
2023-01-18T06:23:55.005Z,99419.50
2023-01-18T06:26:24.838Z,99418.66
2023-01-18T06:28:54.632Z,99416.09
2023-01-18T06:31:24.259Z,99410.09
2023-01-18T06:33:53.925Z,99404.94
2023-01-18T06:36:23.858Z,99403.22
2023-01-18T06:38:53.637Z,99400.66
2023-01-18T06:41:22.817Z,99391.19
2023-01-18T06:43:52.217Z,99387.75
2023-01-18T06:46:21.411Z,99383.47
2023-01-18T06:48:50.365Z,99378.28
2023-01-18T06:51:21.560Z,99372.25
2023-01-18T06:53:51.391Z,99373.97
2023-01-18T06:56:20.794Z,99365.41
2023-01-18T06:58:49.849Z,99371.41
2023-01-18T07:01:19.394Z,99364.53
2023-01-18T07:03:48.525Z,99365.38
2023-01-18T07:06:17.451Z,99360.22
2023-01-18T07:08:46.958Z,99352.47
2023-01-18T07:11:16.162Z,99342.09
2023-01-18T07:13:45.859Z,99346.44
2023-01-18T07:16:19.045Z,99349.84
2023-01-18T07:18:50.040Z,99347.25
2023-01-18T07:21:30.430Z,99340.28
2023-01-18T07:24:00.945Z,99338.63
2023-01-18T07:26:30.420Z,99335.97
2023-01-18T07:28:59.607Z,99334.16
2023-01-18T07:31:28.998Z,99326.50
2023-01-18T07:33:58.577Z,99323.81
2023-01-18T07:36:27.967Z,99312.56
2023-01-18T07:38:57.267Z,99315.13
2023-01-18T07:41:27.268Z,99314.28
2023-01-18T07:43:56.994Z,99312.41
2023-01-18T07:46:27.031Z,99310.78
2023-01-18T07:48:56.844Z,99303.72
2023-01-18T07:51:26.168Z,99301.19
2023-01-18T07:53:56.609Z,99291.56
2023-01-18T07:56:26.938Z,99296.72
2023-01-18T07:58:56.906Z,99287.19
2023-01-18T08:01:26.498Z,99279.34
2023-01-18T08:03:56.319Z,99289.06
2023-01-18T08:06:27.609Z,99277.66
2023-01-18T08:08:58.002Z,99277.53
2023-01-18T08:11:27.490Z,99266.19
2023-01-18T08:13:57.126Z,99271.44
2023-01-18T08:16:28.000Z,99261.91
2023-01-18T08:18:57.216Z,99272.19
2023-01-18T08:21:27.094Z,99268.00
2023-01-18T08:23:56.611Z,99271.53
2023-01-18T08:26:26.853Z,99265.38
2023-01-18T08:28:57.278Z,99255.00
2023-01-18T08:31:26.803Z,99254.34
2023-01-18T08:33:56.048Z,99248.13
2023-01-18T08:36:27.722Z,99244.59
2023-01-18T08:38:58.116Z,99247.22
2023-01-18T08:41:32.341Z,99251.56
2023-01-18T08:44:01.912Z,99243.03
2023-01-18T08:46:31.195Z,99241.28
2023-01-18T08:49:00.907Z,99248.97
2023-01-18T08:51:30.399Z,99246.34
2023-01-18T08:54:01.049Z,99242.81
2023-01-18T08:56:30.430Z,99237.66
2023-01-18T08:59:00.897Z,99237.56
2023-01-18T09:01:30.892Z,99224.66
2023-01-18T09:04:00.719Z,99229.66
2023-01-18T09:06:33.222Z,99223.44
2023-01-18T09:09:03.408Z,99226.91
2023-01-18T09:11:33.083Z,99215.53
2023-01-18T09:14:02.527Z,99214.63
2023-01-18T09:16:32.967Z,99204.50
2023-01-18T09:19:07.130Z,99205.13
2023-01-18T09:21:36.485Z,99194.78
2023-01-18T09:24:06.121Z,99193.09
2023-01-18T09:26:35.589Z,99186.56
2023-01-18T09:29:05.310Z,99188.06
2023-01-18T09:31:34.521Z,99185.19
2023-01-18T09:34:18.351Z,99181.06
2023-01-18T09:36:52.401Z,99179.19
2023-01-18T09:39:23.508Z,99173.25
2023-01-18T09:41:56.637Z,99174.16
2023-01-18T09:44:36.562Z,99177.69
2023-01-18T09:47:05.818Z,99174.09
2023-01-18T09:49:45.185Z,99170.50
2023-01-18T09:52:28.708Z,99179.03
2023-01-18T09:55:09.288Z,99167.53
2023-01-18T09:57:56.708Z,99181.06
2023-01-18T10:00:28.578Z,99164.56
2023-01-18T10:03:02.556Z,99161.91
2023-01-18T10:06:10.906Z,99154.00
2023-01-18T10:09:08.139Z,99154.34
2023-01-18T10:12:00.820Z,99148.53
2023-01-18T10:14:56.291Z,99149.09
2023-01-18T10:17:39.417Z,99144.97
2023-01-18T10:20:40.854Z,99138.81
2023-01-18T10:23:36.315Z,99138.81
2023-01-18T10:26:19.040Z,99139.03
2023-01-18T10:29:26.528Z,99139.06
2023-01-18T10:32:17.386Z,99132.06
2023-01-18T10:34:51.609Z,99126.91
2023-01-18T10:37:34.404Z,99116.09
2023-01-18T10:40:06.603Z,99113.22
2023-01-18T10:42:48.415Z,99110.81
2023-01-18T10:45:22.521Z,99111.03
2023-01-18T10:47:56.735Z,99105.03
2023-01-18T10:50:41.016Z,99099.13
2023-01-18T10:53:25.922Z,99099.75
2023-01-18T10:56:02.891Z,99099.75
2023-01-18T10:58:45.665Z,99108.38
2023-01-18T11:01:29.682Z,99098.94
2023-01-18T11:04:08.604Z,99098.09
2023-01-18T11:06:54.778Z,99091.22
2023-01-18T11:09:47.930Z,99089.53
2023-01-18T11:12:42.293Z,99084.38
2023-01-18T11:15:17.449Z,99072.41
2023-01-18T11:17:58.923Z,99076.00
2023-01-18T11:20:51.110Z,99066.38
2023-01-18T11:23:37.277Z,99069.84
2023-01-18T11:26:09.091Z,99066.53
2023-01-18T11:29:15.170Z,99060.44
2023-01-18T11:31:51.713Z,99058.72
2023-01-18T11:34:31.742Z,99055.34
2023-01-18T11:37:03.272Z,99057.31
2023-01-18T11:39:35.850Z,99046.94
2023-01-18T11:42:26.724Z,99038.28
2023-01-18T11:45:09.593Z,99040.03
2023-01-18T11:48:03.183Z,99050.41
2023-01-18T11:50:35.790Z,99055.66
2023-01-18T11:53:41.201Z,99041.06
2023-01-18T11:56:28.495Z,99051.47
2023-01-18T11:58:58.037Z,99055.91
2023-01-18T12:01:47.523Z,99047.28
2023-01-18T12:04:28.434Z,99048.94
2023-01-18T12:07:04.505Z,99045.66
2023-01-18T12:09:51.490Z,99049.09
2023-01-18T12:12:49.675Z,99050.88
2023-01-18T12:15:31.470Z,99058.72
2023-01-18T12:18:21.009Z,99062.19
2023-01-18T12:20:50.459Z,99064.91
2023-01-18T12:23:28.891Z,99067.44
2023-01-18T12:26:22.238Z,99072.63
2023-01-18T12:29:12.181Z,99079.56
2023-01-18T12:32:03.407Z,99073.69
2023-01-18T12:35:24.299Z,99083.19
2023-01-18T12:38:19.923Z,99084.09
2023-01-18T12:41:17.647Z,99076.41
2023-01-18T12:44:14.002Z,99080.72
2023-01-18T12:47:18.399Z,99075.56
2023-01-18T12:49:53.666Z,99075.63
2023-01-18T12:52:24.433Z,99067.16
2023-01-18T12:54:58.121Z,99078.31
2023-01-18T12:57:28.227Z,99078.41
2023-01-18T13:00:03.418Z,99086.16
2023-01-18T13:02:41.275Z,99100.72
2023-01-18T13:05:13.633Z,99093.88
2023-01-18T13:08:01.700Z,99101.59
2023-01-18T13:10:31.153Z,99105.94
2023-01-18T13:13:00.939Z,99115.41
2023-01-18T13:15:39.002Z,99118.84
2023-01-18T13:18:38.253Z,99121.44
2023-01-18T13:21:26.277Z,99124.03
2023-01-18T13:24:24.634Z,99124.84
2023-01-18T13:26:54.365Z,99121.41
2023-01-18T13:29:32.837Z,99127.44
2023-01-18T13:32:02.465Z,99130.00
2023-01-18T13:34:47.980Z,99140.28
2023-01-18T13:37:43.358Z,99148.88
2023-01-18T13:40:23.257Z,99137.72
2023-01-18T13:42:52.708Z,99145.47
2023-01-18T13:45:27.707Z,99154.03
2023-01-18T13:47:57.750Z,99149.72
2023-01-18T13:50:32.873Z,99155.75
2023-01-18T13:53:20.493Z,99160.06
2023-01-18T13:56:02.408Z,99160.91
2023-01-18T13:58:35.236Z,99166.91
2023-01-18T14:01:06.648Z,99174.63
2023-01-18T14:03:45.067Z,99177.19
2023-01-18T14:06:33.828Z,99176.38
2023-01-18T14:09:08.576Z,99181.50
2023-01-18T14:11:43.227Z,99173.78
2023-01-18T14:14:18.906Z,99182.38
2023-01-18T14:17:01.798Z,99187.50
2023-01-18T14:19:35.789Z,99185.78
2023-01-18T14:22:17.988Z,99193.50
2023-01-18T14:24:58.236Z,99186.69
2023-01-18T14:27:33.538Z,99192.72
2023-01-18T14:30:14.848Z,99199.59
2023-01-18T14:32:55.426Z,99198.72
2023-01-18T14:35:26.378Z,99203.84
2023-01-18T14:38:18.986Z,99210.72
2023-01-18T14:40:52.540Z,99207.31
2023-01-18T14:43:34.844Z,99208.16
2023-01-18T14:46:06.208Z,99216.75
2023-01-18T14:48:42.219Z,99213.31
2023-01-18T14:51:11.579Z,99217.56
2023-01-18T14:53:48.627Z,99221.91
2023-01-18T14:56:22.222Z,99215.84
2023-01-18T14:59:00.000Z,99222.75
2023-01-18T15:01:39.585Z,99221.91
2023-01-18T15:04:20.624Z,99235.63
2023-01-18T15:06:55.434Z,99251.94
2023-01-18T15:09:28.172Z,99250.19
2023-01-18T15:12:01.256Z,99248.53
2023-01-18T15:14:35.266Z,99247.66
2023-01-18T15:17:09.904Z,99253.66
2023-01-18T15:19:46.551Z,99254.53
2023-01-18T15:22:19.018Z,99257.97
2023-01-18T15:24:48.953Z,99246.78
2023-01-18T15:27:22.379Z,99251.94
2023-01-18T15:29:56.394Z,99265.69
2023-01-18T15:32:35.796Z,99263.09
2023-01-18T15:35:06.775Z,99265.69
2023-01-18T15:37:41.184Z,99268.25
2023-01-18T15:40:16.324Z,99269.13
2023-01-18T15:43:22.899Z,99268.28
2023-01-18T15:45:56.894Z,99275.06
2023-01-18T15:48:28.199Z,99272.50
2023-01-18T15:51:06.038Z,99279.38
2023-01-18T15:53:46.656Z,99275.94
2023-01-18T15:56:24.735Z,99264.75
2023-01-18T15:58:57.064Z,99263.03
2023-01-18T16:01:29.865Z,99265.69
2023-01-18T16:04:10.090Z,99275.06
2023-01-18T16:06:41.463Z,99287.94
2023-01-18T16:09:16.843Z,99297.38
2023-01-18T16:11:51.029Z,99294.81
2023-01-18T16:14:34.413Z,99299.06
2023-01-18T16:17:08.954Z,99293.06
2023-01-18T16:19:45.683Z,99293.09
2023-01-18T16:22:39.185Z,99285.38
2023-01-18T16:25:11.062Z,99293.91
2023-01-18T16:27:51.600Z,99292.25
2023-01-18T16:30:22.144Z,99294.78
2023-01-18T16:32:55.518Z,99311.94
2023-01-18T16:35:25.186Z,99323.03
2023-01-18T16:37:54.444Z,99329.91
2023-01-18T16:40:25.776Z,99329.91
2023-01-18T16:43:07.501Z,99332.50
2023-01-18T16:45:39.878Z,99341.88
2023-01-18T16:48:14.232Z,99346.19
2023-01-18T16:50:43.824Z,99347.03
2023-01-18T16:53:17.033Z,99350.47
2023-01-18T16:55:49.473Z,99354.69
2023-01-18T16:58:23.113Z,99347.84
2023-01-18T17:01:14.885Z,99337.59
2023-01-18T17:03:46.069Z,99334.97
2023-01-18T17:06:22.011Z,99333.28
2023-01-18T17:08:51.799Z,99332.38
2023-01-18T17:11:21.519Z,99340.09
2023-01-18T17:13:51.208Z,99350.31
2023-01-18T17:16:24.799Z,99350.34
2023-01-18T17:18:54.513Z,99352.06
2023-01-18T17:21:23.861Z,99362.34
2023-01-18T17:23:53.357Z,99362.34
2023-01-18T17:26:22.606Z,99366.63
2023-01-18T17:28:51.699Z,99362.34
2023-01-18T17:31:21.444Z,99365.75
2023-01-18T17:33:51.235Z,99357.19
2023-01-18T17:36:21.067Z,99351.94
2023-01-18T17:38:50.919Z,99357.09
2023-01-18T17:41:27.257Z,99370.06
2023-01-18T17:43:58.303Z,99362.25
2023-01-18T17:46:27.864Z,99354.56
2023-01-18T17:48:57.279Z,99350.28
2023-01-18T17:51:26.510Z,99343.38
2023-01-18T17:53:55.773Z,99340.81
2023-01-18T17:56:24.917Z,99340.75
2023-01-18T17:58:55.568Z,99329.63
2023-01-18T18:01:24.827Z,99337.34
2023-01-18T18:03:54.290Z,99338.94
2023-01-18T18:06:30.950Z,99324.41
2023-01-18T18:09:03.305Z,99329.69
2023-01-18T18:11:32.886Z,99341.66
2023-01-18T18:14:03.097Z,99350.28
2023-01-18T18:16:36.267Z,99352.75
2023-01-18T18:19:15.469Z,99360.47
2023-01-18T18:21:46.204Z,99368.19
2023-01-18T18:24:15.560Z,99351.97
2023-01-18T18:26:44.568Z,99361.44
2023-01-18T18:29:13.954Z,99355.44
2023-01-18T18:31:44.797Z,99352.88
2023-01-18T18:34:14.310Z,99355.44
2023-01-18T18:36:43.521Z,99356.13
2023-01-18T18:39:12.605Z,99349.25
2023-01-18T18:41:43.889Z,99345.00
2023-01-18T18:44:13.052Z,99329.56
2023-01-18T18:46:42.527Z,99329.59
2023-01-18T18:49:11.754Z,99331.34
2023-01-18T18:51:41.423Z,99336.44
2023-01-18T18:54:12.722Z,99323.56
2023-01-18T18:56:42.603Z,99340.44
2023-01-18T18:59:11.833Z,99337.09
2023-01-18T19:01:40.762Z,99339.66
2023-01-18T19:04:10.527Z,99337.06
2023-01-18T19:06:40.331Z,99331.91
2023-01-18T19:09:09.938Z,99320.69
2023-01-18T19:11:41.624Z,99321.56
2023-01-18T19:14:15.780Z,99325.00
2023-01-18T19:16:45.053Z,99315.53
2023-01-18T19:19:14.555Z,99303.50
2023-01-18T19:21:44.195Z,99294.91
2023-01-18T19:24:13.001Z,99294.94
2023-01-18T19:26:42.283Z,99291.50
2023-01-18T19:29:11.571Z,99294.84
2023-01-18T19:31:40.884Z,99299.16
2023-01-18T19:34:10.052Z,99299.16
2023-01-18T19:36:39.487Z,99292.25
2023-01-18T19:39:14.680Z,99290.59
2023-01-18T19:41:51.033Z,99275.19
2023-01-18T19:44:20.488Z,99267.50
2023-01-18T19:46:49.870Z,99265.00
2023-01-18T19:49:21.240Z,99259.06
2023-01-18T19:51:50.539Z,99261.63
2023-01-18T19:54:19.309Z,99270.28
2023-01-18T19:56:49.104Z,99272.09
2023-01-18T19:59:18.436Z,99263.22
2023-01-18T20:01:47.769Z,99255.50
2023-01-18T20:04:18.468Z,99269.38
2023-01-18T20:06:47.818Z,99264.38
2023-01-18T20:09:20.467Z,99253.22
2023-01-18T20:11:51.106Z,99249.72
2023-01-18T20:14:20.555Z,99240.13
2023-01-18T20:16:49.711Z,99237.59
2023-01-18T20:19:20.174Z,99240.28
2023-01-18T20:21:49.815Z,99240.41
2023-01-18T20:24:19.222Z,99237.78
2023-01-18T20:26:48.461Z,99235.22
2023-01-18T20:29:17.918Z,99229.19
2023-01-18T20:31:50.151Z,99220.72
2023-01-18T20:34:19.461Z,99213.94
2023-01-18T20:36:51.068Z,99214.78
2023-01-18T20:39:20.766Z,99211.47
2023-01-18T20:41:51.159Z,99203.66
2023-01-18T20:44:20.366Z,99206.25
2023-01-18T20:46:52.027Z,99192.56
2023-01-18T20:49:29.926Z,99193.38
2023-01-18T20:52:02.984Z,99200.16
2023-01-18T20:54:34.863Z,99191.53
2023-01-18T20:57:07.207Z,99190.78
2023-01-18T20:59:36.512Z,99200.13
2023-01-18T21:02:05.881Z,99195.91
2023-01-18T21:04:35.475Z,99197.63
2023-01-18T21:07:04.824Z,99189.91
2023-01-18T21:09:34.179Z,99190.78
2023-01-18T21:12:03.314Z,99182.19
2023-01-18T21:14:32.496Z,99192.50
2023-01-18T21:17:01.698Z,99189.16
2023-01-18T21:19:30.896Z,99194.19
2023-01-18T21:22:00.164Z,99185.66
2023-01-18T21:24:29.476Z,99179.69
2023-01-18T21:26:58.447Z,99190.84
2023-01-18T21:29:28.369Z,99204.59
2023-01-18T21:31:58.048Z,99197.75
2023-01-18T21:34:27.160Z,99189.22
2023-01-18T21:36:56.360Z,99195.22
2023-01-18T21:39:29.366Z,99193.47
2023-01-18T21:42:17.291Z,99190.03
2023-01-18T21:45:04.954Z,99189.16
2023-01-18T21:47:34.330Z,99191.72
2023-01-18T21:50:21.782Z,99190.84
2023-01-18T21:53:09.720Z,99184.00
2023-01-18T21:55:41.235Z,99184.88
2023-01-18T21:58:28.503Z,99178.00
2023-01-18T22:01:01.600Z,99187.44
2023-01-18T22:03:30.574Z,99192.59
2023-01-18T22:06:02.349Z,99194.31
2023-01-18T22:08:31.304Z,99203.72
2023-01-18T22:11:00.487Z,99202.84
2023-01-18T22:13:30.045Z,99210.56
2023-01-18T22:16:05.357Z,99213.16
2023-01-18T22:18:34.843Z,99214.88
2023-01-18T22:21:04.123Z,99233.75
2023-01-18T22:23:33.179Z,99232.00
2023-01-18T22:26:02.626Z,99224.28
2023-01-18T22:28:31.798Z,99223.44
2023-01-18T22:31:02.207Z,99221.72
2023-01-18T22:33:31.541Z,99229.44
2023-01-18T22:36:01.723Z,99227.75
2023-01-18T22:38:31.388Z,99226.00
2023-01-18T22:41:08.694Z,99226.03
2023-01-18T22:43:39.410Z,99227.69
2023-01-18T22:46:10.424Z,99228.59
2023-01-18T22:48:40.251Z,99233.72
2023-01-18T22:51:11.739Z,99230.31
2023-01-18T22:53:41.453Z,99227.69
2023-01-18T22:56:31.024Z,99229.44
2023-01-18T22:59:01.674Z,99225.94
2023-01-18T23:01:33.527Z,99221.69
2023-01-18T23:04:05.805Z,99218.28
2023-01-18T23:06:46.496Z,99205.38
2023-01-18T23:09:17.432Z,99214.81
2023-01-18T23:11:48.383Z,99210.50
2023-01-18T23:14:35.618Z,99209.63
2023-01-18T23:17:22.947Z,99213.03
2023-01-18T23:19:52.655Z,99211.34
2023-01-18T23:22:22.014Z,99206.16
2023-01-18T23:24:51.470Z,99214.72
2023-01-18T23:27:20.690Z,99218.13
2023-01-18T23:29:58.247Z,99220.72
2023-01-18T23:32:31.315Z,99219.88
2023-01-18T23:35:01.429Z,99229.28
2023-01-18T23:37:30.910Z,99225.00
2023-01-18T23:40:18.407Z,99226.69
2023-01-18T23:43:05.924Z,99229.28
2023-01-18T23:45:53.739Z,99221.53
2023-01-18T23:48:41.193Z,99224.13
2023-01-18T23:51:28.794Z,99229.25
2023-01-18T23:54:16.506Z,99228.41
2023-01-18T23:56:47.502Z,99223.25
2023-01-18T23:59:16.823Z,99221.47
